Time;durP1;ratioP1;P1;durP2;ratioP2;P2;SDS_P1;SDS_P2;PMS_P1;PMS_P2;Temp;Humidity;BMP_temperature;BMP_pressure;BME280_temperature;BME280_humidity;BME280_pressure;Samples;Min_cycle;Max_cycle;Signal;HPM_P1;HPM_P2
2023/04/29 00:02:01;;;;;;;51.47;29.30;;;8.70;99.90;;;;;;5057933;28;20040;-52
2023/04/29 00:04:27;;;;;;;51.00;27.83;;;8.50;99.90;;;;;;5056015;28;20044;-48
2023/04/29 00:06:53;;;;;;;53.80;28.55;;;8.70;99.90;;;;;;5055585;28;20505;-47
2023/04/29 00:09:20;;;;;;;50.30;29.85;;;8.50;99.90;;;;;;5055796;28;20047;-49
2023/04/29 00:11:46;;;;;;;48.20;27.80;;;8.60;99.90;;;;;;5055430;28;20083;-48
2023/04/29 00:14:12;;;;;;;45.97;25.63;;;9.60;99.90;;;;;;5054903;28;20055;-46
2023/04/29 00:16:38;;;;;;;54.92;28.45;;;8.40;99.90;;;;;;5055524;28;20053;-47
2023/04/29 00:19:04;;;;;;;56.72;28.90;;;8.40;99.90;;;;;;5054788;28;20045;-46
2023/04/29 00:21:32;;;;;;;43.42;27.30;;;8.40;99.90;;;;;;5056921;28;20143;-48
2023/04/29 00:23:59;;;;;;;52.88;27.25;;;8.30;99.90;;;;;;5038571;28;20094;-46
2023/04/29 00:26:24;;;;;;;53.72;27.65;;;8.30;99.90;;;;;;5054045;28;20039;-49
2023/04/29 00:28:50;;;;;;;48.55;26.70;;;10.20;99.90;;;;;;5053946;28;20044;-48
2023/04/29 00:31:16;;;;;;;41.85;26.58;;;8.70;99.90;;;;;;5054762;28;20452;-46
2023/04/29 00:33:42;;;;;;;46.03;28.60;;;9.80;99.90;;;;;;5056266;28;20478;-47
2023/04/29 00:36:08;;;;;;;48.60;26.58;;;8.40;99.90;;;;;;5053892;28;20171;-50
2023/04/29 00:38:34;;;;;;;41.20;25.92;;;9.40;99.90;;;;;;5055637;28;20044;-47
2023/04/29 00:41:00;;;;;;;39.33;25.30;;;8.30;99.90;;;;;;5055990;28;20036;-49
2023/04/29 00:43:25;;;;;;;49.97;25.98;;;8.50;99.90;;;;;;5055369;28;20059;-46
2023/04/29 00:45:51;;;;;;;38.30;23.92;;;8.30;99.90;;;;;;5055362;28;20481;-46
2023/04/29 00:48:17;;;;;;;36.50;22.20;;;8.30;99.90;;;;;;5054865;28;20079;-46
2023/04/29 00:50:43;;;;;;;46.90;24.30;;;8.40;99.90;;;;;;5054207;28;20436;-48
2023/04/29 00:53:11;;;;;;;38.25;21.88;;;8.40;99.90;;;;;;5037725;28;20052;-47
2023/04/29 00:55:38;;;;;;;37.40;22.80;;;8.50;99.90;;;;;;5054982;28;20130;-45
2023/04/29 00:58:04;;;;;;;35.75;23.30;;;8.20;99.90;;;;;;5054888;28;20059;-47
2023/04/29 01:00:30;;;;;;;36.55;21.92;;;8.40;99.90;;;;;;5057505;28;20433;-46
2023/04/29 01:02:56;;;;;;;36.38;23.30;;;8.30;99.90;;;;;;5056458;28;20155;-49
2023/04/29 01:05:25;;;;;;;37.25;21.77;;;8.30;99.90;;;;;;5054054;28;20119;-47
2023/04/29 01:08:09;;;;;;;36.53;23.60;;;8.40;99.90;;;;;;5054425;28;20048;-47
2023/04/29 01:10:43;;;;;;;34.17;20.90;;;8.40;99.90;;;;;;5054873;28;20040;-48
2023/04/29 01:13:29;;;;;;;38.40;22.33;;;8.40;99.90;;;;;;5054209;28;20501;-46
2023/04/29 01:16:02;;;;;;;43.72;21.98;;;8.30;99.90;;;;;;5036386;28;20055;-49
2023/04/29 01:18:44;;;;;;;43.95;21.95;;;9.30;99.90;;;;;;5054734;28;20036;-46
2023/04/29 01:21:10;;;;;;;37.47;20.65;;;8.30;99.90;;;;;;5036823;28;20051;-48
2023/04/29 01:23:35;;;;;;;37.20;20.73;;;8.30;99.90;;;;;;5037307;28;20052;-46
2023/04/29 01:26:01;;;;;;;32.42;20.67;;;8.20;99.90;;;;;;5054443;28;20111;-51
2023/04/29 01:29:07;;;;;;;33.22;20.50;;;8.20;99.90;;;;;;5055038;28;20220;-46
2023/04/29 01:31:55;;;;;;;32.58;19.63;;;8.30;99.90;;;;;;5055139;28;21124;-48
2023/04/29 01:34:31;;;;;;;34.03;21.55;;;8.50;99.90;;;;;;5054097;28;20083;-49
2023/04/29 01:37:16;;;;;;;32.63;21.95;;;8.10;99.90;;;;;;5053394;28;20214;-46
2023/04/29 01:39:49;;;;;;;32.72;20.83;;;8.40;99.90;;;;;;5035507;28;20061;-48
2023/04/29 01:42:21;;;;;;;32.63;19.48;;;8.30;99.90;;;;;;5053251;28;20118;-47
2023/04/29 01:44:49;;;;;;;34.72;20.98;;;8.20;99.90;;;;;;5053596;28;20078;-47
2023/04/29 01:47:16;;;;;;;27.42;18.92;;;8.30;99.90;;;;;;5053172;28;20076;-46
2023/04/29 01:49:41;;;;;;;30.30;20.23;;;8.20;99.90;;;;;;5053939;28;20589;-46
2023/04/29 01:52:07;;;;;;;32.15;19.40;;;8.40;99.90;;;;;;5017921;28;20033;-45
2023/04/29 01:54:37;;;;;;;29.90;19.58;;;8.20;99.90;;;;;;5053700;28;20029;-48
2023/04/29 01:57:03;;;;;;;30.15;19.48;;;9.90;99.90;;;;;;5052799;28;20083;-45
2023/04/29 01:59:29;;;;;;;33.60;19.75;;;8.20;99.90;;;;;;5054313;28;20059;-47
2023/04/29 02:01:57;;;;;;;32.75;20.13;;;8.10;99.90;;;;;;5055397;28;20071;-46
2023/04/29 02:04:24;;;;;;;31.60;19.58;;;7.90;99.90;;;;;;5034469;28;20045;-47
2023/04/29 02:06:51;;;;;;;31.42;20.30;;;7.80;99.90;;;;;;5053425;28;20127;-50
2023/04/29 02:09:17;;;;;;;29.17;19.27;;;7.60;99.90;;;;;;5052866;28;20906;-46
2023/04/29 02:11:43;;;;;;;30.38;19.50;;;7.50;99.90;;;;;;5053694;28;20045;-48
2023/04/29 02:14:09;;;;;;;36.63;21.15;;;7.60;99.90;;;;;;5052729;28;20512;-45
2023/04/29 02:16:35;;;;;;;30.38;19.52;;;7.40;99.90;;;;;;5053795;28;20044;-48
2023/04/29 02:19:00;;;;;;;27.27;19.23;;;7.40;99.90;;;;;;5035950;28;20603;-47
2023/04/29 02:21:26;;;;;;;28.88;21.23;;;6.80;99.90;;;;;;5053981;28;20599;-47
2023/04/29 02:23:53;;;;;;;32.22;22.25;;;7.30;99.90;;;;;;5053616;28;20242;-46
2023/04/29 02:26:19;;;;;;;36.85;21.08;;;7.50;99.90;;;;;;5053885;28;20044;-47
2023/04/29 02:28:45;;;;;;;34.78;21.25;;;7.50;99.90;;;;;;5053052;28;20048;-47
2023/04/29 02:31:11;;;;;;;39.15;20.48;;;8.00;99.90;;;;;;5054119;28;20047;-48
2023/04/29 02:33:37;;;;;;;35.50;20.63;;;7.30;99.90;;;;;;5053627;28;20446;-47
2023/04/29 02:36:03;;;;;;;35.00;21.45;;;7.30;99.90;;;;;;5052173;28;20066;-50
2023/04/29 02:38:29;;;;;;;36.63;21.92;;;7.30;99.90;;;;;;5055078;28;20029;-48
2023/04/29 02:40:55;;;;;;;37.38;20.90;;;7.30;99.90;;;;;;5053853;28;20056;-47
2023/04/29 02:43:21;;;;;;;31.05;21.10;;;7.30;99.90;;;;;;5035905;28;20054;-47
2023/04/29 02:45:46;;;;;;;40.78;22.20;;;7.50;99.90;;;;;;5036053;28;20052;-48
2023/04/29 02:48:12;;;;;;;39.03;22.08;;;7.60;99.90;;;;;;5052415;28;20040;-47
2023/04/29 02:50:38;;;;;;;35.65;20.92;;;7.60;99.90;;;;;;5052789;28;20150;-47
2023/04/29 02:53:04;;;;;;;42.38;23.92;;;7.50;99.90;;;;;;5053188;28;20117;-49
2023/04/29 02:55:29;;;;;;;48.60;26.10;;;9.50;99.90;;;;;;5053574;28;20140;-46
2023/04/29 02:57:55;;;;;;;43.20;23.88;;;7.70;99.90;;;;;;5019062;28;20098;-48
2023/04/29 03:00:22;;;;;;;35.38;21.95;;;8.10;99.90;;;;;;5052869;28;20143;-47
2023/04/29 03:02:48;;;;;;;36.78;23.00;;;8.10;99.90;;;;;;5035942;28;20516;-47
2023/04/29 03:05:14;;;;;;;42.20;22.65;;;8.00;99.90;;;;;;5034705;28;20044;-47
2023/04/29 03:07:40;;;;;;;39.15;20.98;;;8.80;99.90;;;;;;5053056;28;20047;-49
2023/04/29 03:10:06;;;;;;;32.97;20.25;;;9.00;99.90;;;;;;5051981;28;20084;-46
2023/04/29 03:12:33;;;;;;;38.60;21.23;;;8.00;99.90;;;;;;5052469;28;20052;-45
2023/04/29 03:14:59;;;;;;;33.33;19.40;;;8.00;99.90;;;;;;5053108;28;20390;-51
2023/04/29 03:17:25;;;;;;;33.28;17.75;;;7.90;99.90;;;;;;5052891;28;20105;-45
2023/04/29 03:19:53;;;;;;;29.02;17.02;;;7.80;99.90;;;;;;5052468;28;20040;-47
2023/04/29 03:22:18;;;;;;;28.88;18.35;;;7.90;99.90;;;;;;5052127;28;20140;-50
2023/04/29 03:24:44;;;;;;;29.42;16.85;;;8.00;99.90;;;;;;5053295;28;20056;-48
2023/04/29 03:27:10;;;;;;;28.85;16.92;;;8.00;99.90;;;;;;5052695;28;20136;-50
2023/04/29 03:29:36;;;;;;;27.25;17.10;;;7.90;99.90;;;;;;5053459;28;20054;-47
2023/04/29 03:32:02;;;;;;;34.45;16.77;;;8.00;99.90;;;;;;5054780;28;20052;-48
2023/04/29 03:34:28;;;;;;;29.38;15.52;;;8.10;99.90;;;;;;5052390;28;20039;-50
2023/04/29 03:36:54;;;;;;;24.70;15.95;;;7.90;99.90;;;;;;5034513;28;20732;-49
2023/04/29 03:39:20;;;;;;;25.52;14.77;;;7.90;99.90;;;;;;5051193;28;20044;-51
2023/04/29 03:41:46;;;;;;;27.10;15.27;;;7.90;99.90;;;;;;5051786;28;20101;-49
2023/04/29 03:44:12;;;;;;;24.95;13.88;;;7.90;99.90;;;;;;5050796;28;20041;-50
2023/04/29 03:46:38;;;;;;;26.10;14.50;;;7.80;99.90;;;;;;5052450;28;20049;-47
2023/04/29 03:49:04;;;;;;;28.35;14.77;;;7.80;99.90;;;;;;5052783;28;20041;-45
2023/04/29 03:51:30;;;;;;;28.48;14.85;;;8.10;99.90;;;;;;5057770;28;20071;-49
2023/04/29 03:53:56;;;;;;;33.10;15.30;;;8.90;99.90;;;;;;5057081;28;20068;-50
2023/04/29 03:56:24;;;;;;;25.02;14.63;;;8.10;99.90;;;;;;5055185;28;20060;-48
2023/04/29 03:58:51;;;;;;;27.40;15.77;;;9.30;99.90;;;;;;5056383;28;20056;-49
2023/04/29 04:01:17;;;;;;;23.17;15.10;;;8.30;99.90;;;;;;5056249;28;20044;-47
2023/04/29 04:03:43;;;;;;;28.33;16.08;;;8.00;99.90;;;;;;5055716;28;20406;-52
2023/04/29 04:06:08;;;;;;;27.02;15.90;;;8.20;99.90;;;;;;5055268;28;20048;-50
2023/04/29 04:08:34;;;;;;;36.40;18.05;;;8.10;99.90;;;;;;5056246;28;20045;-49
2023/04/29 04:11:02;;;;;;;27.13;14.57;;;8.20;99.90;;;;;;5055591;28;20037;-51
2023/04/29 04:13:31;;;;;;;25.85;14.98;;;7.90;99.90;;;;;;5055318;28;20068;-50
2023/04/29 04:15:56;;;;;;;28.85;15.65;;;8.00;99.90;;;;;;5056209;28;21218;-48
2023/04/29 04:18:22;;;;;;;26.65;15.90;;;8.10;99.90;;;;;;5054635;28;20094;-51
2023/04/29 04:20:48;;;;;;;22.63;14.25;;;8.00;99.90;;;;;;5054060;28;20048;-50
2023/04/29 04:23:14;;;;;;;26.75;14.80;;;8.00;99.90;;;;;;5037464;28;20562;-51
2023/04/29 04:25:47;;;;;;;24.17;14.00;;;8.10;99.90;;;;;;5036607;28;20063;-49
2023/04/29 04:28:13;;;;;;;22.67;14.40;;;7.90;99.90;;;;;;5036413;28;20044;-50
2023/04/29 04:30:39;;;;;;;23.05;12.88;;;8.20;99.90;;;;;;5036656;28;20076;-51
2023/04/29 04:33:05;;;;;;;23.38;12.05;;;8.00;99.90;;;;;;5056241;28;20053;-51
2023/04/29 04:35:31;;;;;;;23.13;12.32;;;7.90;99.90;;;;;;5054196;28;20151;-50
2023/04/29 04:37:57;;;;;;;20.70;12.45;;;8.00;99.90;;;;;;5053633;28;20040;-48
2023/04/29 04:40:23;;;;;;;18.30;11.80;;;8.10;99.90;;;;;;5036882;28;20562;-50
2023/04/29 04:42:49;;;;;;;28.52;12.85;;;8.10;99.90;;;;;;5054992;28;20048;-50
2023/04/29 04:45:14;;;;;;;25.65;12.60;;;9.20;99.90;;;;;;5054523;28;20685;-48
2023/04/29 04:47:41;;;;;;;20.58;11.20;;;7.40;99.90;;;;;;5053827;28;20052;-50
2023/04/29 04:50:07;;;;;;;19.48;10.63;;;8.00;99.90;;;;;;5054018;28;20040;-50
2023/04/29 04:52:34;;;;;;;21.70;11.02;;;8.10;99.90;;;;;;5054729;28;20047;-49
2023/04/29 04:55:00;;;;;;;22.35;11.35;;;8.00;99.90;;;;;;5035385;28;20075;-51
2023/04/29 04:57:25;;;;;;;19.45;10.80;;;8.10;99.90;;;;;;5053961;28;20793;-48
2023/04/29 04:59:51;;;;;;;20.67;11.15;;;8.10;99.90;;;;;;5035802;28;20051;-50
2023/04/29 05:02:17;;;;;;;17.92;9.75;;;8.50;99.90;;;;;;5056348;28;20052;-48
2023/04/29 05:04:43;;;;;;;17.45;10.43;;;8.10;99.90;;;;;;5052998;28;20044;-51
2023/04/29 05:07:09;;;;;;;18.17;10.18;;;8.10;99.90;;;;;;5054005;28;20106;-52
2023/04/29 05:09:36;;;;;;;20.70;10.05;;;8.10;99.90;;;;;;5054820;28;20115;-51
2023/04/29 05:12:02;;;;;;;17.48;9.20;;;8.20;99.90;;;;;;5054008;28;20047;-51
2023/04/29 05:14:27;;;;;;;15.90;9.50;;;8.30;99.90;;;;;;5035838;28;20041;-51
2023/04/29 05:16:58;;;;;;;14.95;9.32;;;8.30;99.90;;;;;;5055004;28;20680;-51
2023/04/29 05:19:23;;;;;;;21.27;9.32;;;8.20;99.90;;;;;;5054761;28;20121;-51
2023/04/29 05:21:49;;;;;;;16.90;8.88;;;9.00;99.90;;;;;;5053597;28;21110;-51
2023/04/29 05:24:15;;;;;;;15.60;9.55;;;8.20;99.90;;;;;;5053314;28;20033;-50
2023/04/29 05:26:42;;;;;;;17.50;10.30;;;9.80;99.90;;;;;;5054052;28;20056;-49
2023/04/29 05:29:11;;;;;;;17.23;9.40;;;8.30;99.90;;;;;;5053786;28;20045;-49
2023/04/29 05:31:37;;;;;;;16.35;9.48;;;8.40;99.90;;;;;;5055397;28;20560;-51
2023/04/29 05:34:06;;;;;;;18.30;9.65;;;8.20;99.90;;;;;;5053683;28;20044;-53
2023/04/29 05:36:34;;;;;;;20.23;10.55;;;8.30;99.90;;;;;;5052961;28;20040;-48
2023/04/29 05:39:00;;;;;;;18.55;8.55;;;8.30;99.90;;;;;;5052180;28;20044;-49
2023/04/29 05:41:26;;;;;;;13.82;8.63;;;8.60;99.90;;;;;;5035584;28;20053;-52
2023/04/29 05:43:51;;;;;;;14.85;8.05;;;8.50;99.90;;;;;;5053344;28;20556;-50
2023/04/29 05:46:19;;;;;;;16.98;8.77;;;8.50;99.90;;;;;;5053837;28;20071;-51
2023/04/29 05:48:45;;;;;;;16.13;9.50;;;10.10;99.90;;;;;;5052817;28;20053;-51
2023/04/29 05:51:12;;;;;;;18.23;9.63;;;8.70;99.90;;;;;;5052877;28;20427;-51
2023/04/29 05:53:39;;;;;;;20.40;8.52;;;8.60;99.90;;;;;;5034600;28;20477;-52
2023/04/29 05:56:07;;;;;;;19.73;8.57;;;6.90;99.90;;;;;;5053625;28;20044;-51
2023/04/29 05:58:34;;;;;;;16.00;9.30;;;9.10;99.90;;;;;;5053027;28;20847;-48
2023/04/29 06:01:00;;;;;;;13.32;8.20;;;9.40;99.90;;;;;;5053349;28;20401;-51
2023/04/29 06:03:26;;;;;;;14.48;8.25;;;9.60;99.90;;;;;;5054650;28;20131;-51
2023/04/29 06:05:52;;;;;;;16.00;7.78;;;10.30;99.90;;;;;;5052374;28;20049;-51
2023/04/29 06:08:18;;;;;;;18.58;7.88;;;10.70;99.90;;;;;;5053675;28;20725;-52
2023/04/29 06:10:45;;;;;;;11.75;7.15;;;10.90;99.90;;;;;;5035432;28;20456;-51
2023/04/29 06:13:11;;;;;;;14.43;7.20;;;11.90;99.90;;;;;;5051871;28;20051;-53
2023/04/29 06:15:37;;;;;;;14.50;7.07;;;12.60;99.90;;;;;;5051469;28;20728;-52
2023/04/29 06:18:02;;;;;;;13.70;6.65;;;13.00;99.90;;;;;;5053880;28;20055;-50
2023/04/29 06:20:28;;;;;;;14.98;6.50;;;13.70;99.90;;;;;;5052890;28;20051;-47
2023/04/29 06:22:54;;;;;;;14.95;6.97;;;14.10;99.90;;;;;;5052880;28;20044;-48
2023/04/29 06:25:20;;;;;;;10.48;5.63;;;14.70;99.90;;;;;;5052565;28;20036;-49
2023/04/29 06:27:46;;;;;;;14.68;6.53;;;14.80;99.90;;;;;;5053814;28;20790;-53
2023/04/29 06:30:12;;;;;;;14.55;7.10;;;15.30;99.90;;;;;;5052664;28;20048;-49
2023/04/29 06:32:38;;;;;;;14.32;6.50;;;15.10;99.90;;;;;;5054468;28;20045;-49
2023/04/29 06:35:05;;;;;;;13.65;6.95;;;15.50;99.90;;;;;;5052952;28;20058;-53
2023/04/29 06:37:30;;;;;;;10.90;5.95;;;15.50;99.90;;;;;;5053353;28;20108;-51
2023/04/29 06:39:56;;;;;;;13.18;6.20;;;15.70;99.90;;;;;;5052650;28;20500;-51
2023/04/29 06:42:22;;;;;;;18.17;6.00;;;15.90;99.90;;;;;;5051741;28;20045;-50
2023/04/29 06:44:47;;;;;;;13.65;6.57;;;15.60;99.90;;;;;;5053030;28;20048;-49
2023/04/29 06:47:14;;;;;;;13.02;6.20;;;15.70;99.90;;;;;;5051485;28;20032;-49
2023/04/29 06:49:39;;;;;;;13.32;5.63;;;16.20;99.90;;;;;;5051551;28;20036;-50
2023/04/29 06:52:05;;;;;;;11.90;5.30;;;17.20;99.90;;;;;;5018441;28;20528;-48
2023/04/29 06:54:32;;;;;;;9.88;5.22;;;17.90;99.90;;;;;;5053052;28;20652;-52
2023/04/29 06:56:58;;;;;;;10.80;4.90;;;18.70;99.90;;;;;;5052755;28;20098;-52
2023/04/29 06:59:24;;;;;;;9.70;4.93;;;19.50;99.90;;;;;;5033494;28;20037;-48
2023/04/29 07:01:50;;;;;;;11.95;5.28;;;20.00;99.90;;;;;;5052232;28;20033;-48
2023/04/29 07:04:16;;;;;;;15.98;5.40;;;20.30;99.90;;;;;;5053364;28;20895;-53
2023/04/29 07:06:45;;;;;;;10.50;4.90;;;20.70;99.90;;;;;;5051925;28;20553;-48
2023/04/29 07:09:12;;;;;;;9.98;4.70;;;21.00;99.90;;;;;;5052195;28;20041;-49
2023/04/29 07:11:39;;;;;;;9.40;4.82;;;21.30;99.90;;;;;;5052326;28;20048;-49
2023/04/29 07:14:06;;;;;;;9.90;5.03;;;20.60;99.90;;;;;;5053044;28;20059;-47
2023/04/29 07:16:32;;;;;;;13.00;4.40;;;21.10;99.90;;;;;;5051995;28;20045;-49
2023/04/29 07:18:58;;;;;;;7.47;4.25;;;21.50;99.90;;;;;;5052121;28;20040;-50
2023/04/29 07:21:24;;;;;;;10.70;4.30;;;21.70;99.90;;;;;;5052975;28;20118;-50
2023/04/29 07:23:50;;;;;;;10.63;4.68;;;22.20;99.90;;;;;;5054874;28;20486;-53
2023/04/29 07:26:16;;;;;;;9.50;4.90;;;22.00;99.90;;;;;;5039067;28;20402;-52
2023/04/29 07:28:43;;;;;;;8.20;4.65;;;21.80;99.90;;;;;;5055387;28;20076;-52
2023/04/29 07:31:10;;;;;;;9.00;4.75;;;22.20;99.90;;;;;;5056213;28;20087;-51
2023/04/29 07:33:36;;;;;;;9.40;4.68;;;22.00;99.90;;;;;;5058080;28;20056;-53
2023/04/29 07:36:03;;;;;;;9.07;4.47;;;22.40;99.90;;;;;;5056827;28;20044;-53
2023/04/29 07:38:28;;;;;;;6.90;4.20;;;22.40;99.90;;;;;;5037966;28;20489;-51
2023/04/29 07:40:54;;;;;;;7.53;4.25;;;22.40;99.90;;;;;;5055584;28;20049;-48
2023/04/29 07:43:20;;;;;;;9.68;4.65;;;22.10;99.90;;;;;;5057134;28;20040;-47
2023/04/29 07:45:47;;;;;;;12.63;5.97;;;21.30;99.90;;;;;;5057710;28;20401;-47
2023/04/29 07:48:12;;;;;;;8.40;5.07;;;20.60;99.90;;;;;;5037994;28;20052;-47
2023/04/29 07:50:38;;;;;;;8.85;4.93;;;19.80;99.90;;;;;;5056086;28;20496;-50
2023/04/29 07:53:04;;;;;;;10.85;5.80;;;19.00;99.90;;;;;;5039511;28;20540;-47
2023/04/29 07:55:30;;;;;;;11.25;5.28;;;19.00;99.90;;;;;;5056454;28;20582;-48
2023/04/29 07:57:57;;;;;;;10.38;5.10;;;18.50;99.90;;;;;;5057002;28;20060;-52
2023/04/29 08:00:23;;;;;;;9.80;4.68;;;18.10;99.90;;;;;;5039037;28;20700;-50
2023/04/29 08:02:56;;;;;;;11.18;5.10;;;17.80;99.90;;;;;;5057563;28;20041;-49
2023/04/29 08:05:22;;;;;;;12.05;5.15;;;17.50;99.90;;;;;;5056823;28;20632;-48
2023/04/29 08:07:49;;;;;;;10.88;5.60;;;17.20;99.90;;;;;;5055789;28;20057;-48
2023/04/29 08:10:15;;;;;;;12.02;5.60;;;16.90;99.90;;;;;;5057160;28;20044;-48
2023/04/29 08:12:44;;;;;;;9.48;5.85;;;16.30;99.90;;;;;;5037944;28;20095;-48
2023/04/29 08:15:10;;;;;;;10.80;4.65;;;16.10;99.90;;;;;;5056422;28;20080;-49
2023/04/29 08:17:36;;;;;;;8.85;4.57;;;15.70;99.90;;;;;;5054166;28;20088;-50
2023/04/29 08:20:02;;;;;;;9.82;4.05;;;15.80;99.90;;;;;;5056208;28;20036;-50
2023/04/29 08:22:28;;;;;;;10.25;5.22;;;15.80;99.90;;;;;;5037722;28;20141;-49
2023/04/29 08:24:53;;;;;;;10.68;4.50;;;15.80;99.90;;;;;;5054876;28;20119;-51
2023/04/29 08:27:20;;;;;;;8.75;4.00;;;15.70;99.90;;;;;;5036507;28;20690;-50
2023/04/29 08:29:46;;;;;;;9.73;4.32;;;16.40;99.90;;;;;;5038029;28;20060;-48
2023/04/29 08:32:12;;;;;;;9.45;4.00;;;17.30;99.90;;;;;;5036455;28;20101;-48
2023/04/29 08:34:40;;;;;;;10.52;4.40;;;17.60;99.90;;;;;;5055746;28;20045;-50
2023/04/29 08:37:06;;;;;;;9.77;4.15;;;17.50;99.90;;;;;;5053229;28;20052;-49
2023/04/29 08:39:31;;;;;;;7.70;4.30;;;17.40;99.90;;;;;;5037369;28;20044;-49
2023/04/29 08:41:58;;;;;;;8.30;4.30;;;17.20;99.90;;;;;;5055106;28;20682;-48
2023/04/29 08:44:27;;;;;;;8.27;4.57;;;16.80;99.90;;;;;;5055093;28;20131;-48
2023/04/29 08:46:54;;;;;;;10.45;4.43;;;16.60;99.90;;;;;;5036183;28;20032;-50
2023/04/29 08:49:20;;;;;;;9.18;4.18;;;16.60;99.90;;;;;;5054273;28;20419;-48
2023/04/29 08:51:50;;;;;;;8.15;4.13;;;16.60;99.90;;;;;;5054901;28;20049;-48
2023/04/29 08:54:16;;;;;;;8.13;3.20;;;16.70;99.90;;;;;;5036034;28;20043;-47
2023/04/29 08:56:45;;;;;;;7.63;4.45;;;16.60;99.90;;;;;;5055054;28;20083;-49
2023/04/29 08:59:15;;;;;;;7.35;4.38;;;16.80;99.90;;;;;;5055387;28;20052;-50
2023/04/29 09:01:43;;;;;;;9.82;4.95;;;16.90;99.90;;;;;;5055181;28;20055;-50
2023/04/29 09:04:17;;;;;;;9.27;5.55;;;17.10;99.90;;;;;;5056329;28;20052;-48
2023/04/29 09:06:44;;;;;;;8.32;5.03;;;16.80;99.90;;;;;;5054407;28;20040;-49
2023/04/29 09:09:10;;;;;;;10.05;5.80;;;16.80;99.90;;;;;;5037006;28;20050;-49
2023/04/29 09:11:36;;;;;;;9.15;4.95;;;17.20;99.90;;;;;;5038227;28;20616;-52
2023/04/29 09:14:03;;;;;;;10.32;5.03;;;17.40;99.90;;;;;;5037577;28;20097;-51
2023/04/29 09:16:29;;;;;;;10.88;5.13;;;17.60;99.90;;;;;;5037658;28;20109;-47
2023/04/29 09:18:55;;;;;;;8.38;4.97;;;17.50;99.90;;;;;;5055830;28;20440;-52
2023/04/29 09:21:26;;;;;;;8.50;4.32;;;17.30;99.90;;;;;;5055539;28;20400;-49
2023/04/29 09:23:54;;;;;;;9.18;4.78;;;17.50;99.90;;;;;;5054855;28;20055;-51
2023/04/29 09:26:20;;;;;;;10.40;5.25;;;17.60;99.90;;;;;;5054979;28;20082;-48
2023/04/29 09:28:46;;;;;;;9.50;5.38;;;17.50;99.90;;;;;;5052760;28;20093;-51
2023/04/29 09:31:12;;;;;;;10.20;5.00;;;17.00;99.90;;;;;;5054658;28;20056;-48
2023/04/29 09:33:53;;;;;;;10.05;5.07;;;16.20;99.90;;;;;;5038234;28;20415;-47
2023/04/29 09:36:41;;;;;;;9.02;5.38;;;16.20;99.90;;;;;;5054245;28;20044;-48
2023/04/29 09:39:12;;;;;;;11.55;5.57;;;16.10;99.90;;;;;;5053971;28;20044;-51
2023/04/29 09:41:57;;;;;;;10.00;4.93;;;16.10;99.90;;;;;;5053581;28;20033;-49
2023/04/29 09:44:26;;;;;;;8.57;5.05;;;15.80;99.90;;;;;;5053442;28;20029;-47
2023/04/29 09:47:00;;;;;;;7.68;5.00;;;15.90;99.90;;;;;;5034897;28;20048;-48
2023/04/29 09:49:29;;;;;;;10.02;4.85;;;16.10;99.90;;;;;;5053218;28;20054;-47
2023/04/29 09:52:07;;;;;;;8.60;5.38;;;16.10;99.90;;;;;;5052791;28;20051;-47
2023/04/29 09:54:35;;;;;;;8.90;5.10;;;16.30;99.90;;;;;;5053868;28;20194;-48
2023/04/29 09:57:04;;;;;;;9.40;5.45;;;16.40;99.90;;;;;;5036738;28;20210;-47
2023/04/29 09:59:32;;;;;;;9.35;4.97;;;16.60;99.90;;;;;;5054254;28;20413;-49
2023/04/29 10:01:58;;;;;;;9.48;5.07;;;16.30;99.90;;;;;;5052969;28;20095;-51
2023/04/29 10:04:26;;;;;;;10.95;5.05;;;16.20;99.90;;;;;;5053702;28;20409;-52
2023/04/29 10:06:53;;;;;;;14.02;5.50;;;16.30;99.90;;;;;;5053808;28;20036;-52
2023/04/29 10:09:20;;;;;;;12.77;5.43;;;16.10;99.90;;;;;;5053346;28;20124;-52
2023/04/29 10:11:52;;;;;;;13.30;4.85;;;16.00;99.90;;;;;;5053418;28;20048;-52
2023/04/29 10:14:20;;;;;;;8.95;4.95;;;16.20;99.90;;;;;;5036814;28;20728;-51
2023/04/29 10:16:53;;;;;;;8.35;4.47;;;16.40;99.90;;;;;;5053579;28;20044;-51
2023/04/29 10:19:34;;;;;;;11.50;4.97;;;16.50;99.90;;;;;;5053655;28;20048;-51
2023/04/29 10:22:21;;;;;;;7.60;4.15;;;16.40;99.90;;;;;;5055410;28;20036;-51
2023/04/29 10:24:48;;;;;;;10.93;5.10;;;16.60;99.90;;;;;;5052576;28;20052;-51
2023/04/29 10:27:14;;;;;;;8.95;3.92;;;16.60;99.90;;;;;;5052253;28;20040;-48
2023/04/29 10:29:42;;;;;;;10.30;3.88;;;16.70;99.90;;;;;;5052677;28;20094;-46
2023/04/29 10:32:09;;;;;;;12.50;4.95;;;16.80;99.90;;;;;;5034613;28;20043;-44
2023/04/29 10:34:38;;;;;;;7.57;3.47;;;16.90;99.90;;;;;;5053614;28;20040;-47
2023/04/29 10:37:07;;;;;;;9.35;3.72;;;16.90;99.90;;;;;;5053046;28;20653;-46
2023/04/29 10:39:49;;;;;;;9.40;3.83;;;17.30;99.90;;;;;;5052749;28;20505;-44
2023/04/29 10:42:46;;;;;;;8.15;2.92;;;17.00;99.90;;;;;;5051783;28;20041;-48
2023/04/29 10:45:27;;;;;;;8.20;2.75;;;16.90;99.90;;;;;;5052291;28;20052;-44
2023/04/29 10:48:04;;;;;;;6.78;2.95;;;16.80;99.90;;;;;;5052972;28;20051;-48
2023/04/29 10:50:46;;;;;;;6.85;2.10;;;16.80;99.90;;;;;;5052795;28;20056;-47
2023/04/29 10:53:16;;;;;;;4.47;1.90;;;16.70;99.90;;;;;;5054734;28;20044;-46
2023/04/29 10:55:45;;;;;;;6.30;2.10;;;16.80;99.90;;;;;;5036217;28;20048;-46
2023/04/29 10:58:34;;;;;;;6.78;2.58;;;16.90;99.90;;;;;;5055349;28;20080;-46
2023/04/29 11:00:59;;;;;;;4.53;2.10;;;17.20;99.90;;;;;;5057311;28;20048;-45
2023/04/29 11:03:47;;;;;;;8.45;2.15;;;17.10;99.90;;;;;;5057548;28;20044;-44
2023/04/29 11:06:14;;;;;;;4.97;2.13;;;17.10;99.90;;;;;;5057983;28;20045;-48
2023/04/29 11:08:41;;;;;;;8.18;3.13;;;17.30;99.90;;;;;;5056477;28;20048;-44
2023/04/29 11:11:08;;;;;;;9.05;3.13;;;17.00;99.90;;;;;;5056495;28;20497;-44
2023/04/29 11:13:38;;;;;;;6.25;2.63;;;17.00;99.90;;;;;;5056721;28;20044;-48
2023/04/29 11:16:11;;;;;;;9.50;3.10;;;17.00;99.90;;;;;;5055949;28;20056;-45
2023/04/29 11:19:04;;;;;;;6.75;2.28;;;17.00;99.90;;;;;;5057126;28;20742;-44
2023/04/29 11:21:31;;;;;;;5.00;1.80;;;17.30;99.90;;;;;;5057979;28;20052;-45
2023/04/29 11:23:57;;;;;;;5.20;2.20;;;17.00;99.90;;;;;;5021849;28;20148;-44
2023/04/29 11:26:23;;;;;;;5.50;2.25;;;16.80;99.90;;;;;;5057371;28;20481;-43
2023/04/29 11:28:51;;;;;;;5.05;2.10;;;16.70;99.90;;;;;;5023473;28;20052;-43
2023/04/29 11:31:17;;;;;;;7.15;2.83;;;16.70;99.90;;;;;;5057243;28;20123;-49
2023/04/29 11:33:43;;;;;;;7.45;2.28;;;16.80;99.90;;;;;;5055600;28;20515;-44
2023/04/29 11:36:10;;;;;;;8.18;3.17;;;16.70;99.90;;;;;;5055515;28;20090;-45
2023/04/29 11:38:40;;;;;;;7.22;2.33;;;16.50;99.90;;;;;;5055935;28;20612;-45
2023/04/29 11:41:05;;;;;;;7.18;2.60;;;16.80;99.90;;;;;;5056644;28;20079;-46
2023/04/29 11:43:31;;;;;;;6.60;2.45;;;16.90;99.90;;;;;;5056859;28;20111;-48
2023/04/29 11:45:57;;;;;;;6.57;2.65;;;16.90;99.90;;;;;;5039338;28;20036;-45
2023/04/29 11:48:24;;;;;;;10.48;2.53;;;16.60;99.90;;;;;;5057568;28;20045;-43
2023/04/29 11:50:58;;;;;;;5.95;2.47;;;16.70;99.90;;;;;;5055345;28;20071;-46
2023/04/29 11:53:26;;;;;;;6.00;1.77;;;16.90;99.90;;;;;;5055008;28;20441;-43
2023/04/29 11:55:52;;;;;;;5.55;2.38;;;16.80;99.90;;;;;;5054565;28;20064;-46
2023/04/29 11:58:22;;;;;;;4.97;2.35;;;16.70;99.90;;;;;;5055551;28;20044;-45
2023/04/29 12:00:48;;;;;;;7.30;1.85;;;17.00;99.90;;;;;;5057015;28;20045;-45
2023/04/29 12:03:19;;;;;;;8.10;1.95;;;17.00;99.90;;;;;;5056894;28;20053;-43
2023/04/29 12:05:52;;;;;;;6.35;1.85;;;17.00;99.90;;;;;;5058664;28;20131;-43
2023/04/29 12:08:21;;;;;;;5.90;1.52;;;17.00;99.90;;;;;;5055900;28;20048;-44
2023/04/29 12:10:48;;;;;;;7.43;1.80;;;16.90;99.90;;;;;;5055208;28;20385;-44
2023/04/29 12:13:17;;;;;;;7.57;1.73;;;17.00;99.90;;;;;;5056662;28;20651;-47
2023/04/29 12:15:48;;;;;;;6.65;2.22;;;17.00;99.90;;;;;;5037582;28;20053;-44
2023/04/29 12:18:16;;;;;;;6.32;2.08;;;16.80;99.90;;;;;;5057200;28;20036;-44
2023/04/29 12:20:43;;;;;;;3.70;1.63;;;16.80;99.90;;;;;;5055051;28;20084;-44
2023/04/29 12:23:21;;;;;;;4.60;1.20;;;16.90;99.90;;;;;;5055032;28;20123;-45
2023/04/29 12:25:56;;;;;;;6.43;1.58;;;16.60;99.90;;;;;;5055001;28;20064;-48
2023/04/29 12:28:22;;;;;;;3.30;1.30;;;16.50;99.90;;;;;;5053039;28;21684;-49
2023/04/29 12:30:50;;;;;;;3.40;0.98;;;16.60;99.90;;;;;;5054140;28;20044;-49
2023/04/29 12:33:26;;;;;;;4.78;1.30;;;16.50;99.90;;;;;;5052407;28;20048;-50
2023/04/29 12:35:56;;;;;;;4.20;1.27;;;16.60;99.90;;;;;;5053865;28;20048;-48
2023/04/29 12:38:29;;;;;;;3.92;1.65;;;16.60;99.90;;;;;;5036854;28;20040;-49
2023/04/29 12:41:03;;;;;;;5.43;1.20;;;16.50;99.90;;;;;;5053375;28;21724;-47
2023/04/29 12:43:30;;;;;;;4.15;1.65;;;16.40;99.90;;;;;;5035292;28;20055;-47
2023/04/29 12:46:06;;;;;;;4.20;1.55;;;16.50;99.90;;;;;;5054248;28;20059;-49